Time;durP1;ratioP1;P1;durP2;ratioP2;P2;SDS_P1;SDS_P2;PMS_P1;PMS_P2;Temp;Humidity;BMP_temperature;BMP_pressure;BME280_temperature;BME280_humidity;BME280_pressure;Samples;Min_cycle;Max_cycle;Signal;HPM_P1;HPM_P2
2021/06/15 00:00:48;;;;;;;9.68;8.50;;;19.70;99.90;;;;;;5053207;28;20198;-64
2021/06/15 00:03:14;;;;;;;13.10;10.27;;;19.70;99.90;;;;;;5070911;28;20223;-64
2021/06/15 00:05:40;;;;;;;10.80;9.88;;;19.60;99.90;;;;;;5073326;28;20698;-64
2021/06/15 00:08:05;;;;;;;10.32;9.43;;;19.60;99.90;;;;;;5058031;28;20175;-64
2021/06/15 00:10:31;;;;;;;11.30;9.10;;;19.50;99.90;;;;;;5054876;28;20178;-64
2021/06/15 00:12:57;;;;;;;9.48;8.43;;;19.50;99.90;;;;;;5053663;28;20175;-64
2021/06/15 00:15:23;;;;;;;9.88;9.07;;;19.50;99.90;;;;;;5053189;28;20595;-64
2021/06/15 00:17:50;;;;;;;9.07;8.38;;;19.40;99.90;;;;;;5047401;28;20485;-64
2021/06/15 00:20:17;;;;;;;11.23;10.40;;;19.40;99.90;;;;;;5072771;28;20174;-64
2021/06/15 00:22:44;;;;;;;11.88;10.77;;;19.30;99.90;;;;;;5061931;28;20183;-65
2021/06/15 00:25:11;;;;;;;12.63;11.50;;;19.30;99.90;;;;;;5052938;28;20209;-64
2021/06/15 00:27:37;;;;;;;10.60;9.63;;;19.30;99.90;;;;;;5061619;28;20216;-64
2021/06/15 00:30:04;;;;;;;10.02;9.10;;;19.30;99.90;;;;;;5072541;28;20198;-65
2021/06/15 00:32:30;;;;;;;10.63;9.68;;;19.20;99.90;;;;;;5064491;28;20209;-64
2021/06/15 00:34:56;;;;;;;10.43;9.45;;;19.00;99.90;;;;;;5052925;28;20222;-64
2021/06/15 00:37:22;;;;;;;10.05;9.02;;;18.90;99.90;;;;;;5058914;28;20236;-64
2021/06/15 00:39:48;;;;;;;10.55;9.52;;;18.70;99.90;;;;;;5072490;28;20650;-64
2021/06/15 00:42:15;;;;;;;9.73;8.73;;;18.70;99.90;;;;;;5067406;28;20182;-64
2021/06/15 00:44:41;;;;;;;11.27;8.40;;;18.60;99.90;;;;;;5052342;28;20634;-64
2021/06/15 00:47:07;;;;;;;11.83;10.50;;;18.40;99.90;;;;;;5055706;28;20185;-64
2021/06/15 00:49:35;;;;;;;10.53;9.60;;;18.20;99.90;;;;;;5054659;28;20166;-64
2021/06/15 00:52:02;;;;;;;12.10;10.90;;;18.10;99.90;;;;;;5070278;28;20227;-64
2021/06/15 00:54:28;;;;;;;11.33;10.23;;;18.00;99.90;;;;;;5052730;28;20713;-64
2021/06/15 00:56:54;;;;;;;11.50;10.40;;;18.00;99.90;;;;;;5052547;28;20198;-64
2021/06/15 00:59:20;;;;;;;12.13;10.97;;;17.90;99.90;;;;;;5072397;28;20178;-64
2021/06/15 01:01:46;;;;;;;12.47;10.60;;;17.90;99.90;;;;;;5055133;28;20253;-65
2021/06/15 01:04:13;;;;;;;13.10;11.13;;;17.80;99.90;;;;;;5052070;28;20233;-65
2021/06/15 01:06:51;;;;;;;12.83;11.63;;;17.70;99.90;;;;;;5067183;28;20190;-65
2021/06/15 01:09:39;;;;;;;12.10;10.93;;;17.60;99.90;;;;;;5072211;28;20170;-65
2021/06/15 01:12:35;;;;;;;12.50;11.23;;;17.50;99.90;;;;;;5053247;28;20186;-64
2021/06/15 01:15:17;;;;;;;13.47;12.00;;;17.50;99.90;;;;;;5059220;28;20202;-65
2021/06/15 01:17:57;;;;;;;13.07;11.87;;;17.40;99.90;;;;;;5072086;28;20628;-65
2021/06/15 01:20:29;;;;;;;11.83;10.67;;;17.40;99.90;;;;;;5060493;28;20236;-65
2021/06/15 01:23:32;;;;;;;13.50;11.93;;;17.40;99.90;;;;;;5051881;28;20264;-64
2021/06/15 01:26:40;;;;;;;13.30;11.90;;;17.30;99.90;;;;;;5067067;28;20724;-65
2021/06/15 01:29:23;;;;;;;13.77;12.37;;;17.20;99.90;;;;;;5066116;28;20194;-64
2021/06/15 01:31:52;;;;;;;12.70;11.40;;;17.20;99.90;;;;;;5051603;28;20187;-64
2021/06/15 01:34:29;;;;;;;14.53;12.60;;;17.20;99.90;;;;;;5052189;28;20640;-64
2021/06/15 01:37:13;;;;;;;13.63;12.30;;;17.20;99.90;;;;;;5051918;28;20292;-64
2021/06/15 01:39:55;;;;;;;12.17;10.77;;;17.30;99.90;;;;;;5053750;28;20284;-64
2021/06/15 01:42:31;;;;;;;14.50;12.40;;;17.20;99.90;;;;;;5071736;28;20174;-64
2021/06/15 01:45:07;;;;;;;13.50;12.10;;;17.10;99.90;;;;;;5066894;28;20210;-64
2021/06/15 01:47:35;;;;;;;14.27;12.77;;;17.00;99.90;;;;;;5052256;28;20177;-64
2021/06/15 01:50:05;;;;;;;16.07;12.43;;;17.00;99.90;;;;;;5052882;28;20267;-64
2021/06/15 01:52:35;;;;;;;14.03;12.40;;;16.90;99.90;;;;;;5051470;28;20171;-64
2021/06/15 01:55:03;;;;;;;15.23;13.30;;;16.80;99.90;;;;;;5058315;28;20216;-64
2021/06/15 01:57:30;;;;;;;14.30;13.00;;;16.70;99.90;;;;;;5071401;28;20257;-64
2021/06/15 01:59:59;;;;;;;15.57;13.83;;;16.70;99.90;;;;;;5065207;28;20182;-64
2021/06/15 02:02:26;;;;;;;15.70;13.07;;;16.70;99.90;;;;;;5051298;28;20187;-64
2021/06/15 02:04:54;;;;;;;16.93;13.77;;;16.70;99.90;;;;;;5056331;28;20213;-70
2021/06/15 02:07:28;;;;;;;16.27;13.40;;;16.70;99.90;;;;;;5064324;28;20202;-70
2021/06/15 02:10:05;;;;;;;14.50;13.10;;;16.70;99.90;;;;;;5034845;28;20175;-70
2021/06/15 02:12:33;;;;;;;14.63;13.00;;;16.80;99.90;;;;;;5052370;28;20224;-68
2021/06/15 02:14:59;;;;;;;17.80;14.03;;;16.80;99.90;;;;;;5057023;28;20205;-67
2021/06/15 02:17:26;;;;;;;16.70;14.70;;;16.80;99.90;;;;;;5072595;28;20262;-68
2021/06/15 02:19:53;;;;;;;17.53;14.73;;;16.80;99.90;;;;;;5069298;28;20638;-69
2021/06/15 02:22:21;;;;;;;16.30;14.63;;;16.80;99.90;;;;;;5051915;28;20186;-69
2021/06/15 02:24:51;;;;;;;20.33;13.50;;;16.70;99.90;;;;;;5054587;28;20226;-67
2021/06/15 02:27:20;;;;;;;16.30;14.23;;;16.70;99.90;;;;;;5073376;28;20174;-67
2021/06/15 02:29:45;;;;;;;16.40;14.67;;;16.80;99.90;;;;;;5070892;28;20271;-69
2021/06/15 02:32:15;;;;;;;16.63;14.83;;;16.80;99.90;;;;;;5052054;28;20655;-68
2021/06/15 02:34:46;;;;;;;16.47;14.40;;;16.80;99.90;;;;;;5052381;28;20694;-66
2021/06/15 02:37:16;;;;;;;17.40;15.50;;;16.80;99.90;;;;;;5053039;28;20268;-69
2021/06/15 02:39:42;;;;;;;16.73;14.87;;;16.80;99.90;;;;;;5052051;28;20178;-69
2021/06/15 02:42:13;;;;;;;16.57;14.97;;;16.80;99.90;;;;;;5053730;28;20664;-70
2021/06/15 02:44:42;;;;;;;20.37;16.00;;;16.80;99.90;;;;;;5051986;28;20194;-66
2021/06/15 02:47:08;;;;;;;17.20;14.83;;;16.70;99.90;;;;;;5052563;28;20245;-74
2021/06/15 02:49:58;;;;;;;16.97;15.00;;;16.70;99.90;;;;;;5053152;28;20238;-68
2021/06/15 02:52:35;;;;;;;17.93;15.60;;;16.70;99.90;;;;;;5055641;28;20171;-69
2021/06/15 02:55:06;;;;;;;19.10;14.83;;;16.60;99.90;;;;;;5055735;28;20190;-68
2021/06/15 02:57:31;;;;;;;17.83;15.93;;;16.50;99.90;;;;;;5055724;28;20199;-70
2021/06/15 02:59:58;;;;;;;21.73;16.50;;;16.50;99.90;;;;;;5055518;28;20209;-69
2021/06/15 03:02:25;;;;;;;17.87;15.87;;;16.50;99.90;;;;;;5058013;28;20189;-69
2021/06/15 03:04:51;;;;;;;18.73;16.77;;;16.50;99.90;;;;;;5075861;28;20202;-70
2021/06/15 03:07:16;;;;;;;19.33;17.17;;;16.40;99.90;;;;;;5057466;28;20233;-67
2021/06/15 03:09:43;;;;;;;19.47;15.90;;;16.40;99.90;;;;;;5055379;28;20253;-70
2021/06/15 03:12:17;;;;;;;19.53;17.07;;;16.40;99.90;;;;;;5053757;28;20689;-68
2021/06/15 03:14:48;;;;;;;25.60;17.47;;;16.40;99.90;;;;;;5065823;28;20191;-68
2021/06/15 03:17:15;;;;;;;19.43;16.60;;;16.30;99.90;;;;;;5056080;28;20181;-70
2021/06/15 03:20:11;;;;;;;25.83;17.57;;;16.30;99.90;;;;;;5064310;28;20630;-69
2021/06/15 03:22:45;;;;;;;20.43;16.20;;;16.30;99.90;;;;;;5075258;28;20257;-66
2021/06/15 03:25:12;;;;;;;19.43;16.97;;;16.30;99.90;;;;;;5062689;28;20249;-67
2021/06/15 03:27:48;;;;;;;21.70;17.40;;;16.20;99.90;;;;;;5055379;28;20167;-67
2021/06/15 03:30:15;;;;;;;17.67;15.83;;;16.20;99.90;;;;;;5066771;28;20590;-68
2021/06/15 03:32:49;;;;;;;20.80;16.90;;;16.20;99.90;;;;;;5075256;28;20235;-70
2021/06/15 03:35:16;;;;;;;28.10;18.70;;;16.20;99.90;;;;;;5063706;28;20229;-69
2021/06/15 03:37:50;;;;;;;24.27;17.70;;;16.20;99.90;;;;;;5055608;28;20182;-69
2021/06/15 03:40:17;;;;;;;26.73;18.47;;;16.20;99.90;;;;;;5066011;28;20190;-67
2021/06/15 03:42:43;;;;;;;22.87;18.00;;;16.20;99.90;;;;;;5075510;28;20216;-69
2021/06/15 03:45:11;;;;;;;20.57;17.13;;;16.20;99.90;;;;;;5065055;28;20234;-67
2021/06/15 03:47:39;;;;;;;20.83;18.27;;;16.20;99.90;;;;;;5055625;28;20199;-69
2021/06/15 03:50:08;;;;;;;22.47;18.20;;;16.20;99.90;;;;;;5064067;28;20200;-67
2021/06/15 03:52:39;;;;;;;20.43;17.90;;;16.30;99.90;;;;;;5074309;28;20178;-66
2021/06/15 03:55:07;;;;;;;21.87;19.50;;;16.30;99.90;;;;;;5065363;28;20202;-66
2021/06/15 03:57:41;;;;;;;25.40;18.83;;;16.30;99.90;;;;;;5053556;28;20175;-66
2021/06/15 04:00:13;;;;;;;22.00;19.07;;;16.30;99.90;;;;;;5060763;28;20182;-65
2021/06/15 04:02:42;;;;;;;25.57;19.13;;;16.30;99.90;;;;;;5072581;28;20582;-65
2021/06/15 04:05:10;;;;;;;23.80;19.13;;;16.40;99.90;;;;;;5065748;28;20249;-65
2021/06/15 04:07:36;;;;;;;23.93;20.20;;;16.50;99.90;;;;;;5053404;28;20178;-65
2021/06/15 04:10:04;;;;;;;22.53;17.50;;;16.60;99.90;;;;;;5058994;28;20180;-65
2021/06/15 04:12:30;;;;;;;24.33;19.90;;;16.60;99.90;;;;;;5073077;28;20224;-65
2021/06/15 04:14:57;;;;;;;25.17;19.63;;;16.70;99.90;;;;;;5068480;28;20205;-65
2021/06/15 04:17:27;;;;;;;21.17;18.63;;;16.70;99.90;;;;;;5053315;28;20639;-65
2021/06/15 04:19:55;;;;;;;23.83;18.53;;;16.80;99.90;;;;;;5056202;28;20268;-65
2021/06/15 04:22:26;;;;;;;23.50;19.63;;;17.00;99.90;;;;;;5072922;28;20174;-66
2021/06/15 04:24:54;;;;;;;27.13;18.93;;;17.10;99.90;;;;;;5070168;28;20214;-65
2021/06/15 04:27:22;;;;;;;24.80;19.37;;;17.30;99.90;;;;;;5053082;28;20667;-65
2021/06/15 04:29:49;;;;;;;20.23;17.70;;;17.60;99.90;;;;;;5053731;28;20707;-66
2021/06/15 04:32:18;;;;;;;25.10;18.50;;;17.70;99.90;;;;;;5072857;28;20650;-65
2021/06/15 04:34:52;;;;;;;20.43;17.67;;;17.80;99.90;;;;;;5072295;28;20178;-65
2021/06/15 04:37:19;;;;;;;20.93;17.60;;;17.80;99.90;;;;;;5052827;28;20186;-65
2021/06/15 04:40:15;;;;;;;20.97;18.40;;;17.60;99.90;;;;;;5052478;28;20221;-66
2021/06/15 04:42:53;;;;;;;21.87;17.57;;;17.80;99.90;;;;;;5069112;28;20194;-65
2021/06/15 04:45:39;;;;;;;25.63;18.73;;;17.90;99.90;;;;;;5073952;22;21379;-66
2021/06/15 04:48:07;;;;;;;21.47;18.33;;;18.00;99.90;;;;;;5032753;28;20246;-66
2021/06/15 04:50:34;;;;;;;21.47;19.20;;;18.20;99.90;;;;;;5031404;28;20536;-64
2021/06/15 04:53:03;;;;;;;20.10;18.00;;;18.30;99.90;;;;;;5032489;28;20183;-66
2021/06/15 04:55:31;;;;;;;22.30;18.00;;;18.50;99.90;;;;;;5028687;28;20192;-66
2021/06/15 04:57:59;;;;;;;21.37;18.30;;;18.50;99.90;;;;;;5012024;28;20176;-67
2021/06/15 05:00:27;;;;;;;23.43;16.83;;;18.60;99.90;;;;;;5014047;28;20190;-66
2021/06/15 05:02:53;;;;;;;20.67;18.43;;;18.60;99.90;;;;;;5016280;28;20184;-66
2021/06/15 05:05:21;;;;;;;23.13;18.25;;;18.80;99.90;;;;;;5013018;28;20231;-67
2021/06/15 05:07:56;;;;;;;20.43;18.33;;;18.90;99.90;;;;;;5032343;28;20599;-66
2021/06/15 05:10:23;;;;;;;24.40;17.98;;;19.20;99.90;;;;;;5030969;28;20228;-66
2021/06/15 05:12:52;;;;;;;19.93;17.87;;;19.40;99.90;;;;;;5031503;28;20190;-66
2021/06/15 05:15:26;;;;;;;21.42;19.23;;;19.50;99.90;;;;;;5017450;28;20199;-67
2021/06/15 05:17:53;;;;;;;21.35;17.10;;;19.60;99.90;;;;;;5032094;28;20172;-66
2021/06/15 05:20:20;;;;;;;19.58;17.50;;;19.50;99.90;;;;;;5012657;28;20653;-66
2021/06/15 05:22:51;;;;;;;19.50;17.60;;;19.70;99.90;;;;;;5012256;28;20242;-66
2021/06/15 05:25:17;;;;;;;19.88;17.90;;;19.90;99.90;;;;;;5029955;28;20211;-66
2021/06/15 05:27:43;;;;;;;19.95;17.83;;;20.10;99.90;;;;;;5031950;28;20229;-66
2021/06/15 05:30:10;;;;;;;19.80;17.70;;;20.20;99.90;;;;;;5015458;28;20264;-66
2021/06/15 05:32:35;;;;;;;19.02;17.02;;;20.40;99.90;;;;;;5011203;28;20226;-66
2021/06/15 05:35:02;;;;;;;19.95;17.85;;;20.50;99.90;;;;;;5026435;28;20580;-67
2021/06/15 05:37:28;;;;;;;19.45;17.80;;;20.60;99.90;;;;;;5031792;28;20183;-67
2021/06/15 05:39:58;;;;;;;19.80;16.83;;;20.80;99.90;;;;;;5018591;28;20211;-67
2021/06/15 05:42:24;;;;;;;17.98;16.02;;;21.10;99.90;;;;;;5012118;28;20307;-67
2021/06/15 05:44:50;;;;;;;15.80;14.20;;;21.30;99.90;;;;;;5023377;28;20715;-67
2021/06/15 05:47:16;;;;;;;19.08;15.00;;;21.40;99.90;;;;;;5031656;28;20246;-67
2021/06/15 05:49:42;;;;;;;14.85;13.50;;;21.50;99.90;;;;;;5003793;28;20294;-66
2021/06/15 05:52:10;;;;;;;21.42;14.23;;;21.70;99.90;;;;;;5011839;28;20169;-67
2021/06/15 05:54:37;;;;;;;14.65;13.23;;;21.80;99.90;;;;;;5019997;28;20265;-67
2021/06/15 05:57:04;;;;;;;14.63;13.13;;;21.90;99.90;;;;;;5031644;28;20199;-66
2021/06/15 05:59:30;;;;;;;14.75;13.23;;;21.90;99.90;;;;;;5024537;28;20199;-66
2021/06/15 06:01:56;;;;;;;16.00;14.18;;;21.90;99.90;;;;;;5011521;28;20176;-66
2021/06/15 06:04:24;;;;;;;15.75;14.15;;;21.80;99.90;;;;;;5014520;28;20203;-67
2021/06/15 06:09:37;;;;;;;16.67;14.48;;;21.60;99.90;;;;;;5024940;28;20266;-66
2021/06/15 06:12:03;;;;;;;15.13;13.57;;;21.60;99.90;;;;;;5011477;28;20250;-67
2021/06/15 06:14:29;;;;;;;14.15;12.75;;;21.50;99.90;;;;;;5015883;28;20184;-67
2021/06/15 06:16:55;;;;;;;14.27;12.88;;;21.80;99.90;;;;;;5030298;28;20557;-67
2021/06/15 06:19:20;;;;;;;15.32;13.75;;;21.90;99.90;;;;;;5011610;28;20267;-64
2021/06/15 06:21:46;;;;;;;15.13;12.90;;;22.10;99.90;;;;;;5011290;28;20176;-66
2021/06/15 06:24:12;;;;;;;14.48;12.95;;;22.20;99.90;;;;;;5030574;28;20206;-65
2021/06/15 06:26:39;;;;;;;16.05;12.00;;;22.30;99.90;;;;;;5034930;28;20219;-66
2021/06/15 06:29:04;;;;;;;12.85;11.55;;;22.60;99.90;;;;;;5033694;28;20187;-66
2021/06/15 06:31:30;;;;;;;14.32;11.07;;;23.10;99.90;;;;;;5034870;28;20175;-65
2021/06/15 06:33:56;;;;;;;12.50;11.32;;;23.70;99.90;;;;;;5019654;28;20191;-66
2021/06/15 06:36:22;;;;;;;14.15;12.85;;;24.00;99.90;;;;;;5015165;28;20196;-66
2021/06/15 06:38:49;;;;;;;12.45;11.25;;;24.30;99.90;;;;;;5017353;28;20184;-66
2021/06/15 06:41:19;;;;;;;12.98;11.30;;;24.40;99.90;;;;;;5014966;28;20175;-66
2021/06/15 06:43:45;;;;;;;13.18;11.77;;;24.70;99.90;;;;;;5027303;28;20179;-66
2021/06/15 06:46:10;;;;;;;11.95;10.73;;;25.00;99.90;;;;;;5034778;28;20212;-65
2021/06/15 06:48:37;;;;;;;12.65;11.43;;;25.20;99.90;;;;;;5032986;28;20190;-64
2021/06/15 06:51:02;;;;;;;13.00;11.63;;;25.80;99.90;;;;;;5034516;28;20168;-64
2021/06/15 06:53:28;;;;;;;12.45;11.15;;;26.30;99.90;;;;;;5025765;28;20187;-65
2021/06/15 06:55:55;;;;;;;12.27;11.07;;;26.40;99.90;;;;;;5014855;28;20192;-67
2021/06/15 06:58:21;;;;;;;14.98;11.00;;;26.30;99.90;;;;;;5015831;28;20184;-64
2021/06/15 07:00:47;;;;;;;10.95;9.95;;;26.40;99.90;;;;;;5014408;28;20227;-64
2021/06/15 07:03:13;;;;;;;13.88;12.57;;;26.80;99.90;;;;;;5019903;28;20183;-63
2021/06/15 07:05:38;;;;;;;11.02;10.05;;;27.40;99.90;;;;;;5034272;28;20663;-64
2021/06/15 07:08:04;;;;;;;10.55;9.00;;;27.40;99.90;;;;;;5030842;28;20632;-64
2021/06/15 07:10:30;;;;;;;9.45;8.57;;;27.10;99.90;;;;;;5014195;28;20176;-65
2021/06/15 07:12:56;;;;;;;10.35;9.35;;;27.30;99.90;;;;;;5017040;28;20532;-65
2021/06/15 07:15:22;;;;;;;11.35;9.82;;;27.40;99.90;;;;;;5034250;28;20195;-64
2021/06/15 07:17:47;;;;;;;10.80;9.68;;;27.80;99.90;;;;;;5033196;28;20175;-64
2021/06/15 07:20:14;;;;;;;9.52;8.48;;;27.80;99.90;;;;;;5014100;28;20180;-64
2021/06/15 07:22:40;;;;;;;10.38;9.48;;;27.90;99.90;;;;;;5014199;28;20176;-64
2021/06/15 07:25:06;;;;;;;9.95;9.05;;;27.40;99.90;;;;;;5032993;28;20261;-64
2021/06/15 07:27:32;;;;;;;9.60;8.77;;;27.30;99.90;;;;;;5034145;28;20581;-65
2021/06/15 07:29:58;;;;;;;10.27;9.05;;;27.40;99.90;;;;;;5016387;28;20180;-65
2021/06/15 07:32:24;;;;;;;15.32;14.13;;;27.40;99.90;;;;;;5014123;28;20263;-65
2021/06/15 07:34:50;;;;;;;10.23;9.23;;;27.30;99.90;;;;;;5024414;28;20275;-65
2021/06/15 07:37:15;;;;;;;10.13;9.15;;;27.50;99.90;;;;;;5032551;28;20192;-64
2021/06/15 07:39:41;;;;;;;9.13;8.27;;;27.80;99.90;;;;;;5019876;28;20192;-64
2021/06/15 07:42:08;;;;;;;10.52;8.88;;;27.90;99.90;;;;;;5013958;28;20215;-65
2021/06/15 07:44:34;;;;;;;10.48;9.57;;;27.90;99.90;;;;;;5025657;28;20742;-65
2021/06/15 07:47:00;;;;;;;10.10;9.10;;;27.60;99.90;;;;;;5033522;28;20199;-65
2021/06/15 07:49:25;;;;;;;10.20;8.77;;;27.60;99.90;;;;;;5024216;28;20188;-65
2021/06/15 07:51:51;;;;;;;12.05;10.05;;;27.70;99.90;;;;;;4999628;28;20176;-65
2021/06/15 07:54:17;;;;;;;9.30;8.50;;;27.60;99.90;;;;;;5013893;28;20176;-65
2021/06/15 07:56:43;;;;;;;10.45;8.60;;;27.60;99.90;;;;;;5019700;28;20687;-65
2021/06/15 07:59:08;;;;;;;10.05;9.07;;;27.30;99.90;;;;;;5033476;28;20179;-65
2021/06/15 08:01:34;;;;;;;13.27;9.18;;;27.60;99.90;;;;;;5027760;28;20199;-65
2021/06/15 08:04:00;;;;;;;10.85;8.77;;;27.60;99.90;;;;;;5013437;28;20287;-65
2021/06/15 08:06:25;;;;;;;10.82;9.93;;;27.50;99.90;;;;;;5016679;28;20230;-65
2021/06/15 08:08:51;;;;;;;10.80;8.77;;;27.40;99.90;;;;;;5033115;28;20553;-65
2021/06/15 08:11:17;;;;;;;9.18;8.40;;;27.60;99.90;;;;;;5031279;28;20172;-65
2021/06/15 08:13:43;;;;;;;8.75;7.85;;;27.90;99.90;;;;;;5013422;28;20642;-64
2021/06/15 08:16:08;;;;;;;8.48;7.65;;;27.90;99.90;;;;;;5013417;28;20215;-64
2021/06/15 08:18:34;;;;;;;11.43;8.20;;;28.20;99.90;;;;;;5029208;28;20268;-65
2021/06/15 08:21:00;;;;;;;8.13;7.38;;;28.70;99.90;;;;;;5013040;28;20175;-65
2021/06/15 08:23:28;;;;;;;8.80;7.53;;;28.90;99.90;;;;;;5030881;28;20183;-65
2021/06/15 08:25:54;;;;;;;7.60;6.88;;;29.30;99.90;;;;;;5032640;28;20241;-65
2021/06/15 08:28:20;;;;;;;8.30;7.50;;;29.60;99.90;;;;;;5016472;28;20245;-65
2021/06/15 08:30:46;;;;;;;7.68;6.88;;;29.60;99.90;;;;;;5015004;28;20262;-65
2021/06/15 08:33:12;;;;;;;5.60;5.07;;;29.80;99.90;;;;;;5032936;28;20167;-65
2021/06/15 08:35:37;;;;;;;5.55;5.10;;;29.80;99.90;;;;;;5031962;28;20569;-65
2021/06/15 08:38:03;;;;;;;5.80;5.35;;;29.90;99.90;;;;;;5013098;28;20222;-65
2021/06/15 08:40:30;;;;;;;6.43;5.28;;;29.60;99.90;;;;;;5012633;28;20180;-65
2021/06/15 08:42:57;;;;;;;6.55;5.78;;;29.80;99.90;;;;;;5031501;28;20266;-65
2021/06/15 08:45:24;;;;;;;6.15;5.57;;;30.10;99.90;;;;;;5032478;28;20265;-65
2021/06/15 08:47:52;;;;;;;5.70;5.20;;;29.50;99.90;;;;;;5014469;28;20239;-64
2021/06/15 08:50:21;;;;;;;6.65;5.90;;;29.50;99.90;;;;;;5012469;28;20223;-65
2021/06/15 08:52:48;;;;;;;6.45;5.95;;;29.00;99.90;;;;;;5029019;28;20575;-65
2021/06/15 08:55:15;;;;;;;6.85;6.25;;;29.70;99.90;;;;;;5032456;28;20172;-65
2021/06/15 08:57:41;;;;;;;6.05;5.55;;;29.80;99.90;;;;;;5016214;28;20211;-65
2021/06/15 09:00:12;;;;;;;7.50;7.00;;;29.90;99.90;;;;;;5012398;28;20196;-67
2021/06/15 09:02:46;;;;;;;8.15;7.50;;;30.00;99.90;;;;;;5026316;28;20255;-65
2021/06/15 09:05:17;;;;;;;8.02;5.65;;;30.10;99.90;;;;;;5032215;28;20199;-66
2021/06/15 09:08:04;;;;;;;6.47;5.95;;;30.50;99.90;;;;;;5017649;28;20180;-65
2021/06/15 09:10:47;;;;;;;5.88;5.32;;;30.90;99.90;;;;;;5012017;28;20172;-65
2021/06/15 09:13:39;;;;;;;5.35;4.95;;;30.90;99.90;;;;;;5031372;28;20183;-65
2021/06/15 09:16:25;;;;;;;5.40;5.00;;;31.00;99.90;;;;;;5029554;28;20672;-65
2021/06/15 09:18:56;;;;;;;5.10;4.60;;;30.80;99.90;;;;;;5012313;28;20180;-65
2021/06/15 09:21:31;;;;;;;5.15;4.65;;;30.80;99.90;;;;;;5013140;28;20203;-65
2021/06/15 09:24:25;;;;;;;7.10;4.97;;;30.30;99.90;;;;;;5012233;28;20259;-65
2021/06/15 09:26:55;;;;;;;5.55;5.13;;;30.30;99.90;;;;;;5001689;28;20207;-65
2021/06/15 09:29:43;;;;;;;6.07;5.57;;;29.90;99.90;;;;;;5031904;28;20186;-65
2021/06/15 09:32:20;;;;;;;5.70;5.28;;;30.00;99.90;;;;;;5022127;28;20183;-64
2021/06/15 09:34:59;;;;;;;6.18;5.60;;;29.80;99.90;;;;;;5012061;28;21046;-64
2021/06/15 09:37:40;;;;;;;5.13;4.72;;;29.60;99.90;;;;;;5022842;28;20191;-64
2021/06/15 09:40:11;;;;;;;5.45;4.95;;;29.60;99.90;;;;;;5031817;28;20183;-66
2021/06/15 09:42:51;;;;;;;5.03;4.63;;;30.20;99.90;;;;;;5026118;28;20187;-65
2021/06/15 09:45:25;;;;;;;6.20;5.70;;;30.40;99.90;;;;;;5011830;28;20261;-63
2021/06/15 09:47:52;;;;;;;6.97;6.47;;;30.80;99.90;;;;;;5025027;28;20188;-63
2021/06/15 09:50:21;;;;;;;5.50;5.00;;;30.50;99.90;;;;;;5031535;28;20267;-64
2021/06/15 09:52:46;;;;;;;6.32;5.72;;;30.20;99.90;;;;;;5029796;28;20179;-64
2021/06/15 09:55:12;;;;;;;6.22;5.63;;;29.90;99.90;;;;;;5031722;28;20175;-64
2021/06/15 09:57:45;;;;;;;6.05;5.63;;;30.10;99.90;;;;;;5020570;28;20187;-65
2021/06/15 10:00:19;;;;;;;6.10;5.70;;;31.00;99.90;;;;;;5010765;28;20184;-65
2021/06/15 10:02:54;;;;;;;5.28;4.88;;;31.60;99.90;;;;;;5022187;28;20195;-64
2021/06/15 10:05:26;;;;;;;4.65;4.35;;;31.60;99.90;;;;;;5031362;28;20289;-65
2021/06/15 10:07:52;;;;;;;5.97;5.47;;;31.00;99.90;;;;;;5019736;28;20192;-64
2021/06/15 10:10:22;;;;;;;5.25;4.85;;;31.00;99.90;;;;;;5011356;28;20187;-64
2021/06/15 10:12:50;;;;;;;5.75;5.25;;;31.10;99.90;;;;;;5021637;28;20186;-64
2021/06/15 10:15:17;;;;;;;5.15;4.75;;;31.00;99.90;;;;;;5031196;28;20199;-67
2021/06/15 10:17:45;;;;;;;5.70;5.30;;;31.20;99.90;;;;;;5027475;28;20225;-64
2021/06/15 10:20:15;;;;;;;5.53;5.07;;;31.50;99.90;;;;;;5031080;28;20163;-64
2021/06/15 10:22:43;;;;;;;5.15;4.75;;;31.80;99.90;;;;;;5022649;28;20558;-64
2021/06/15 10:25:09;;;;;;;4.82;4.38;;;31.80;99.90;;;;;;5011402;28;20295;-65
2021/06/15 10:27:35;;;;;;;5.13;4.72;;;31.90;99.90;;;;;;5018121;28;20175;-65
2021/06/15 10:30:01;;;;;;;4.85;4.50;;;31.90;99.90;;;;;;5030874;28;20656;-65
2021/06/15 10:32:28;;;;;;;4.88;4.47;;;31.80;99.90;;;;;;5025582;28;20202;-65
2021/06/15 10:35:04;;;;;;;4.60;4.22;;;31.50;99.90;;;;;;5011164;28;20633;-65
2021/06/15 10:37:36;;;;;;;4.32;4.03;;;31.50;99.90;;;;;;5016356;28;20186;-65
2021/06/15 10:40:14;;;;;;;4.72;4.43;;;31.60;99.90;;;;;;5030908;28;20262;-64
2021/06/15 10:43:09;;;;;;;4.80;4.50;;;31.70;99.90;;;;;;5024759;28;20716;-65
2021/06/15 10:45:35;;;;;;;6.43;4.50;;;31.30;99.90;;;;;;5011414;28;20759;-65
2021/06/15 10:48:06;;;;;;;4.53;4.22;;;31.40;99.90;;;;;;5019215;28;20171;-64
2021/06/15 10:50:35;;;;;;;3.97;3.67;;;31.10;99.90;;;;;;5030506;28;20180;-64
2021/06/15 10:53:01;;;;;;;4.88;4.40;;;31.10;99.90;;;;;;5029388;28;20172;-65
2021/06/15 10:55:59;;;;;;;5.28;4.78;;;31.40;99.90;;;;;;5030941;28;20746;-65
2021/06/15 10:58:36;;;;;;;4.20;3.90;;;31.70;99.90;;;;;;5020321;28;20646;-65
2021/06/15 11:01:17;;;;;;;3.78;3.58;;;32.20;99.90;;;;;;5010981;28;20176;-64
2021/06/15 11:03:54;;;;;;;4.68;4.38;;;32.30;99.90;;;;;;5023148;28;20190;-64
2021/06/15 11:06:26;;;;;;;3.83;3.63;;;32.00;99.90;;;;;;5030678;28;20199;-65
2021/06/15 11:09:13;;;;;;;4.45;4.03;;;31.80;99.90;;;;;;5017503;28;20177;-65
2021/06/15 11:11:38;;;;;;;4.05;3.83;;;31.70;99.90;;;;;;5022707;28;20179;-65
2021/06/15 11:14:09;;;;;;;3.92;3.63;;;32.00;99.90;;;;;;5034335;28;20452;-65
2021/06/15 11:16:46;;;;;;;3.78;3.58;;;32.20;99.90;;;;;;5025029;28;20208;-65
2021/06/15 11:19:12;;;;;;;4.15;3.85;;;32.70;99.90;;;;;;5014623;28;20371;-65
2021/06/15 11:21:44;;;;;;;4.60;4.40;;;32.50;99.90;;;;;;5022264;28;20237;-65
2021/06/15 11:24:35;;;;;;;4.78;4.47;;;32.10;99.90;;;;;;5034119;28;20207;-64
2021/06/15 11:27:27;;;;;;;4.55;4.15;;;31.80;99.90;;;;;;5032313;28;20558;-64
2021/06/15 11:29:57;;;;;;;3.70;3.50;;;31.90;99.90;;;;;;5033756;28;20182;-65
2021/06/15 11:32:29;;;;;;;4.07;3.88;;;32.50;99.90;;;;;;5020162;28;20301;-65
2021/06/15 11:37:33;;;;;;;5.43;5.03;;;32.70;99.90;;;;;;5015197;28;20204;-64
2021/06/15 11:40:15;;;;;;;4.88;4.40;;;33.00;99.90;;;;;;5014059;28;20192;-65
2021/06/15 11:42:42;;;;;;;6.70;3.50;;;32.80;99.90;;;;;;5028541;28;20626;-64
2021/06/15 11:45:11;;;;;;;3.88;3.67;;;32.30;99.90;;;;;;5033532;28;20294;-65
2021/06/15 11:47:57;;;;;;;3.90;3.60;;;32.00;99.90;;;;;;5019608;28;20184;-64
2021/06/15 11:50:33;;;;;;;3.53;3.25;;;31.70;99.90;;;;;;5013467;28;20183;-65
2021/06/15 11:53:00;;;;;;;3.60;3.40;;;32.20;99.90;;;;;;5030129;28;20179;-64
2021/06/15 11:55:29;;;;;;;3.40;3.20;;;32.50;99.90;;;;;;5033497;28;20203;-65
2021/06/15 11:58:01;;;;;;;3.72;3.53;;;32.80;99.90;;;;;;5018062;28;20246;-66
2021/06/15 12:00:30;;;;;;;3.58;3.22;;;32.00;99.90;;;;;;5013341;28;20179;-64
2021/06/15 12:03:07;;;;;;;4.38;3.55;;;32.20;99.90;;;;;;5028185;28;20187;-65
2021/06/15 12:05:34;;;;;;;3.72;3.53;;;32.20;99.90;;;;;;5033111;28;20211;-65
2021/06/15 12:08:00;;;;;;;4.15;3.95;;;32.60;99.90;;;;;;5018343;28;20181;-64
2021/06/15 12:10:27;;;;;;;4.00;3.70;;;32.80;99.90;;;;;;5013175;28;20184;-65
2021/06/15 12:13:08;;;;;;;3.70;3.50;;;33.20;99.90;;;;;;5000559;28;20215;-65
2021/06/15 12:15:34;;;;;;;5.10;4.85;;;33.60;99.90;;;;;;5013231;28;20723;-66
2021/06/15 12:18:01;;;;;;;4.28;3.85;;;33.50;99.90;;;;;;5027003;28;20176;-65
2021/06/15 12:20:29;;;;;;;3.70;3.50;;;33.00;99.90;;;;;;5032948;28;20183;-65
2021/06/15 12:22:56;;;;;;;3.88;3.60;;;32.60;99.90;;;;;;5019482;28;20184;-65
2021/06/15 12:25:30;;;;;;;4.25;3.95;;;32.80;99.90;;;;;;5013040;28;20705;-64
2021/06/15 12:28:13;;;;;;;4.25;4.00;;;32.90;99.90;;;;;;5025112;28;20211;-65
2021/06/15 12:30:40;;;;;;;4.20;3.90;;;32.50;99.90;;;;;;5032432;28;20258;-65
2021/06/15 12:33:10;;;;;;;4.07;3.70;;;32.50;99.90;;;;;;5019837;28;20203;-64
2021/06/15 12:35:36;;;;;;;4.13;3.83;;;32.40;99.90;;;;;;5012516;28;20203;-65
2021/06/15 12:38:10;;;;;;;4.97;4.03;;;32.70;99.90;;;;;;5024566;28;20183;-64
2021/06/15 12:40:38;;;;;;;5.00;4.70;;;32.60;99.90;;;;;;5032080;28;20202;-65
2021/06/15 12:43:04;;;;;;;4.40;4.10;;;32.30;99.90;;;;;;5021065;28;20187;-65
2021/06/15 12:45:40;;;;;;;4.13;3.85;;;32.60;99.90;;;;;;5012390;28;20204;-65
2021/06/15 12:48:23;;;;;;;4.70;3.92;;;32.70;99.90;;;;;;5023951;28;20188;-65
2021/06/15 12:51:07;;;;;;;4.70;4.28;;;33.00;99.90;;;;;;5031896;28;20217;-64
2021/06/15 12:53:35;;;;;;;4.25;4.00;;;33.50;99.90;;;;;;5020210;28;20176;-65
2021/06/15 12:56:20;;;;;;;5.45;5.15;;;33.70;99.90;;;;;;5012286;28;20231;-65